Terminal Aerodrome Forecast
Issued by NWS Wilmington, OH

Current Version | Previous Version | Text Only | Print | Product List | Glossary Off
Versions: 1 2 3 4 5 6 7 8 9 10 11 12 13 14 15 16 17 18 19 20 21 22 23 24 25

000
FTUS41 KILN 261735
TAFILN
TAF
KILN 261735Z 2618/2718 VRB03KT P6SM VCSH SCT025 BKN040
     FM261900 32005KT P6SM VCSH BKN040
      TEMPO 2620/2624 3SM -TSRA BR OVC028CB
     FM270000 35005KT P6SM BKN040
     FM270500 04004KT P6SM SKC
     FM271500 08004KT P6SM FEW050=

USA.gov is the U.S. government's official web portal to all federal, state and local government web resources and services.